sensor_id;sensor_type;location;lat;lon;timestamp;temperature;humidity
12053;DHT22;6087;48.982;12.064;2022-07-21T00:00:20;25.40;57.30
12053;DHT22;6087;48.982;12.064;2022-07-21T00:02:49;25.40;57.70
12053;DHT22;6087;48.982;12.064;2022-07-21T00:05:17;25.30;57.80
12053;DHT22;6087;48.982;12.064;2022-07-21T00:07:45;25.20;58.20
12053;DHT22;6087;48.982;12.064;2022-07-21T00:10:13;25.10;58.50
12053;DHT22;6087;48.982;12.064;2022-07-21T00:12:44;25.10;58.30
12053;DHT22;6087;48.982;12.064;2022-07-21T00:15:13;25.00;59.00
12053;DHT22;6087;48.982;12.064;2022-07-21T00:17:42;24.80;59.40
12053;DHT22;6087;48.982;12.064;2022-07-21T00:20:13;24.80;60.20
12053;DHT22;6087;48.982;12.064;2022-07-21T00:22:41;24.70;60.70
12053;DHT22;6087;48.982;12.064;2022-07-21T00:25:11;24.70;61.10
12053;DHT22;6087;48.982;12.064;2022-07-21T00:27:40;24.70;61.00
12053;DHT22;6087;48.982;12.064;2022-07-21T00:30:10;24.70;61.00
12053;DHT22;6087;48.982;12.064;2022-07-21T00:32:38;24.70;60.90
12053;DHT22;6087;48.982;12.064;2022-07-21T00:35:09;24.60;61.60
12053;DHT22;6087;48.982;12.064;2022-07-21T00:37:37;24.60;61.40
12053;DHT22;6087;48.982;12.064;2022-07-21T00:40:11;24.60;61.00
12053;DHT22;6087;48.982;12.064;2022-07-21T00:42:45;24.70;60.80
12053;DHT22;6087;48.982;12.064;2022-07-21T00:45:13;24.80;59.90
12053;DHT22;6087;48.982;12.064;2022-07-21T00:47:41;24.90;60.10
12053;DHT22;6087;48.982;12.064;2022-07-21T00:50:15;25.00;59.70
12053;DHT22;6087;48.982;12.064;2022-07-21T00:52:44;25.10;59.50
12053;DHT22;6087;48.982;12.064;2022-07-21T00:55:13;25.20;59.40
12053;DHT22;6087;48.982;12.064;2022-07-21T00:57:41;25.20;58.60
12053;DHT22;6087;48.982;12.064;2022-07-21T01:00:14;25.30;58.50
12053;DHT22;6087;48.982;12.064;2022-07-21T01:02:43;25.30;58.50
12053;DHT22;6087;48.982;12.064;2022-07-21T01:05:15;25.30;58.10
12053;DHT22;6087;48.982;12.064;2022-07-21T01:07:45;25.40;58.30
12053;DHT22;6087;48.982;12.064;2022-07-21T01:10:14;25.40;58.00
12053;DHT22;6087;48.982;12.064;2022-07-21T01:12:42;25.40;57.80
12053;DHT22;6087;48.982;12.064;2022-07-21T01:15:12;25.40;58.10
12053;DHT22;6087;48.982;12.064;2022-07-21T01:17:41;25.40;58.00
12053;DHT22;6087;48.982;12.064;2022-07-21T01:20:15;25.40;57.90
12053;DHT22;6087;48.982;12.064;2022-07-21T01:22:46;25.40;58.70
12053;DHT22;6087;48.982;12.064;2022-07-21T01:25:15;25.40;58.00
12053;DHT22;6087;48.982;12.064;2022-07-21T01:27:44;25.40;58.40
12053;DHT22;6087;48.982;12.064;2022-07-21T01:30:13;25.40;58.60
12053;DHT22;6087;48.982;12.064;2022-07-21T01:32:41;25.40;58.60
12053;DHT22;6087;48.982;12.064;2022-07-21T01:35:13;25.40;58.60
12053;DHT22;6087;48.982;12.064;2022-07-21T01:37:44;25.40;58.80
12053;DHT22;6087;48.982;12.064;2022-07-21T01:40:13;25.40;58.60
12053;DHT22;6087;48.982;12.064;2022-07-21T01:42:58;25.40;58.70
12053;DHT22;6087;48.982;12.064;2022-07-21T01:45:28;25.40;58.90
12053;DHT22;6087;48.982;12.064;2022-07-21T01:47:56;25.40;59.10
12053;DHT22;6087;48.982;12.064;2022-07-21T01:50:24;25.40;59.30
12053;DHT22;6087;48.982;12.064;2022-07-21T01:52:59;25.40;58.80
12053;DHT22;6087;48.982;12.064;2022-07-21T01:55:27;25.30;59.10
12053;DHT22;6087;48.982;12.064;2022-07-21T01:57:55;25.30;59.30
12053;DHT22;6087;48.982;12.064;2022-07-21T02:00:23;25.30;59.30
12053;DHT22;6087;48.982;12.064;2022-07-21T02:02:53;25.30;59.30
12053;DHT22;6087;48.982;12.064;2022-07-21T02:05:21;25.30;59.70
12053;DHT22;6087;48.982;12.064;2022-07-21T02:07:49;25.30;59.80
12053;DHT22;6087;48.982;12.064;2022-07-21T02:10:24;25.30;59.80
12053;DHT22;6087;48.982;12.064;2022-07-21T02:12:52;25.30;59.90
12053;DHT22;6087;48.982;12.064;2022-07-21T02:15:20;25.30;60.10
12053;DHT22;6087;48.982;12.064;2022-07-21T02:17:48;25.30;59.60
12053;DHT22;6087;48.982;12.064;2022-07-21T02:20:23;25.10;60.50
12053;DHT22;6087;48.982;12.064;2022-07-21T02:22:51;25.00;60.60
12053;DHT22;6087;48.982;12.064;2022-07-21T02:25:23;25.00;61.00
12053;DHT22;6087;48.982;12.064;2022-07-21T02:27:53;24.80;62.00
12053;DHT22;6087;48.982;12.064;2022-07-21T02:30:27;24.60;62.80
12053;DHT22;6087;48.982;12.064;2022-07-21T02:33:00;24.50;63.60
12053;DHT22;6087;48.982;12.064;2022-07-21T02:35:27;24.50;63.90
12053;DHT22;6087;48.982;12.064;2022-07-21T02:37:55;24.40;64.30
12053;DHT22;6087;48.982;12.064;2022-07-21T02:40:24;24.30;64.60
12053;DHT22;6087;48.982;12.064;2022-07-21T02:42:58;24.30;64.80
12053;DHT22;6087;48.982;12.064;2022-07-21T02:45:26;24.30;65.30
12053;DHT22;6087;48.982;12.064;2022-07-21T02:47:56;24.30;66.30
12053;DHT22;6087;48.982;12.064;2022-07-21T02:50:26;24.30;67.10
12053;DHT22;6087;48.982;12.064;2022-07-21T02:52:55;24.20;68.70
12053;DHT22;6087;48.982;12.064;2022-07-21T02:55:25;24.10;68.90
12053;DHT22;6087;48.982;12.064;2022-07-21T02:58:04;24.00;70.70
12053;DHT22;6087;48.982;12.064;2022-07-21T03:00:32;23.90;71.80
12053;DHT22;6087;48.982;12.064;2022-07-21T03:03:00;23.80;72.40
12053;DHT22;6087;48.982;12.064;2022-07-21T03:05:29;23.70;72.80
12053;DHT22;6087;48.982;12.064;2022-07-21T03:08:00;23.60;73.60
12053;DHT22;6087;48.982;12.064;2022-07-21T03:10:33;23.60;73.80
12053;DHT22;6087;48.982;12.064;2022-07-21T03:13:00;23.60;74.60
12053;DHT22;6087;48.982;12.064;2022-07-21T03:15:28;23.60;74.50
12053;DHT22;6087;48.982;12.064;2022-07-21T03:17:57;23.60;75.20
12053;DHT22;6087;48.982;12.064;2022-07-21T03:20:26;23.60;75.00
12053;DHT22;6087;48.982;12.064;2022-07-21T03:22:54;23.60;75.90
12053;DHT22;6087;48.982;12.064;2022-07-21T03:25:22;23.60;76.00
12053;DHT22;6087;48.982;12.064;2022-07-21T03:27:51;23.40;77.20
12053;DHT22;6087;48.982;12.064;2022-07-21T03:30:20;23.40;78.20
12053;DHT22;6087;48.982;12.064;2022-07-21T03:32:49;23.20;80.20
12053;DHT22;6087;48.982;12.064;2022-07-21T03:35:18;23.20;82.30
12053;DHT22;6087;48.982;12.064;2022-07-21T03:37:50;23.10;84.40
12053;DHT22;6087;48.982;12.064;2022-07-21T03:40:20;23.00;86.30
12053;DHT22;6087;48.982;12.064;2022-07-21T03:42:55;23.10;87.30
12053;DHT22;6087;48.982;12.064;2022-07-21T03:45:24;23.10;89.20
12053;DHT22;6087;48.982;12.064;2022-07-21T03:47:52;23.10;90.20
12053;DHT22;6087;48.982;12.064;2022-07-21T03:50:20;23.00;90.90
12053;DHT22;6087;48.982;12.064;2022-07-21T03:52:48;23.00;92.20
12053;DHT22;6087;48.982;12.064;2022-07-21T03:55:16;23.00;92.20
12053;DHT22;6087;48.982;12.064;2022-07-21T03:57:46;22.80;93.60
12053;DHT22;6087;48.982;12.064;2022-07-21T04:00:21;22.70;94.50
12053;DHT22;6087;48.982;12.064;2022-07-21T04:02:50;22.80;95.40
12053;DHT22;6087;48.982;12.064;2022-07-21T04:05:18;22.80;95.80
12053;DHT22;6087;48.982;12.064;2022-07-21T04:07:47;22.70;96.80
12053;DHT22;6087;48.982;12.064;2022-07-21T04:10:19;22.70;96.40
12053;DHT22;6087;48.982;12.064;2022-07-21T04:12:46;22.60;97.80
12053;DHT22;6087;48.982;12.064;2022-07-21T04:15:24;22.60;98.20
12053;DHT22;6087;48.982;12.064;2022-07-21T04:17:54;22.50;99.40
12053;DHT22;6087;48.982;12.064;2022-07-21T04:20:24;22.40;99.90
12053;DHT22;6087;48.982;12.064;2022-07-21T04:22:55;22.30;99.90
12053;DHT22;6087;48.982;12.064;2022-07-21T04:25:23;22.30;99.90
12053;DHT22;6087;48.982;12.064;2022-07-21T04:27:51;22.30;99.90
12053;DHT22;6087;48.982;12.064;2022-07-21T04:30:24;22.20;99.90
12053;DHT22;6087;48.982;12.064;2022-07-21T04:32:52;22.20;99.90
12053;DHT22;6087;48.982;12.064;2022-07-21T04:35:29;22.20;99.90
12053;DHT22;6087;48.982;12.064;2022-07-21T04:37:57;22.20;99.90
12053;DHT22;6087;48.982;12.064;2022-07-21T04:40:25;22.20;99.90
12053;DHT22;6087;48.982;12.064;2022-07-21T04:42:55;22.10;99.90
12053;DHT22;6087;48.982;12.064;2022-07-21T04:45:25;22.20;99.90
12053;DHT22;6087;48.982;12.064;2022-07-21T04:47:54;22.20;99.90
12053;DHT22;6087;48.982;12.064;2022-07-21T04:50:24;22.30;99.90
12053;DHT22;6087;48.982;12.064;2022-07-21T04:52:55;22.30;99.90
12053;DHT22;6087;48.982;12.064;2022-07-21T04:55:24;22.30;99.90
12053;DHT22;6087;48.982;12.064;2022-07-21T04:57:53;22.20;99.90
12053;DHT22;6087;48.982;12.064;2022-07-21T05:00:25;22.20;99.90
12053;DHT22;6087;48.982;12.064;2022-07-21T05:02:53;22.30;99.90
12053;DHT22;6087;48.982;12.064;2022-07-21T05:05:21;22.30;99.90
12053;DHT22;6087;48.982;12.064;2022-07-21T05:07:49;22.50;99.90
12053;DHT22;6087;48.982;12.064;2022-07-21T05:10:16;22.30;99.90
12053;DHT22;6087;48.982;12.064;2022-07-21T05:12:44;22.20;99.90
12053;DHT22;6087;48.982;12.064;2022-07-21T05:15:11;22.20;99.90
12053;DHT22;6087;48.982;12.064;2022-07-21T05:17:40;22.10;99.90
12053;DHT22;6087;48.982;12.064;2022-07-21T05:20:08;22.10;99.90
12053;DHT22;6087;48.982;12.064;2022-07-21T05:22:35;22.10;99.90
12053;DHT22;6087;48.982;12.064;2022-07-21T05:25:02;22.20;99.90
12053;DHT22;6087;48.982;12.064;2022-07-21T05:27:30;22.20;99.90
12053;DHT22;6087;48.982;12.064;2022-07-21T05:29:58;22.20;99.90
12053;DHT22;6087;48.982;12.064;2022-07-21T05:32:24;22.30;99.90
12053;DHT22;6087;48.982;12.064;2022-07-21T05:34:53;22.40;99.90
12053;DHT22;6087;48.982;12.064;2022-07-21T05:37:19;22.20;99.90
12053;DHT22;6087;48.982;12.064;2022-07-21T05:39:47;22.20;99.90
12053;DHT22;6087;48.982;12.064;2022-07-21T05:42:20;22.30;99.90
12053;DHT22;6087;48.982;12.064;2022-07-21T05:44:47;22.40;99.90
12053;DHT22;6087;48.982;12.064;2022-07-21T05:47:15;22.60;99.90
12053;DHT22;6087;48.982;12.064;2022-07-21T05:49:44;22.70;99.90
12053;DHT22;6087;48.982;12.064;2022-07-21T05:52:16;22.60;99.90
12053;DHT22;6087;48.982;12.064;2022-07-21T05:54:44;22.60;99.90
12053;DHT22;6087;48.982;12.064;2022-07-21T05:57:14;22.70;99.90
12053;DHT22;6087;48.982;12.064;2022-07-21T05:59:45;22.80;99.90
12053;DHT22;6087;48.982;12.064;2022-07-21T06:02:13;22.70;99.90
12053;DHT22;6087;48.982;12.064;2022-07-21T06:04:44;22.50;99.90
12053;DHT22;6087;48.982;12.064;2022-07-21T06:07:11;22.50;99.90
12053;DHT22;6087;48.982;12.064;2022-07-21T06:09:41;22.60;99.90
12053;DHT22;6087;48.982;12.064;2022-07-21T06:12:11;22.60;99.90
12053;DHT22;6087;48.982;12.064;2022-07-21T06:14:41;22.50;99.90
12053;DHT22;6087;48.982;12.064;2022-07-21T06:17:08;22.40;99.90
12053;DHT22;6087;48.982;12.064;2022-07-21T06:19:36;22.60;99.90
12053;DHT22;6087;48.982;12.064;2022-07-21T06:22:05;22.40;99.90
12053;DHT22;6087;48.982;12.064;2022-07-21T06:24:33;22.40;99.90
12053;DHT22;6087;48.982;12.064;2022-07-21T06:27:02;22.50;99.90
12053;DHT22;6087;48.982;12.064;2022-07-21T06:29:30;22.50;99.90
12053;DHT22;6087;48.982;12.064;2022-07-21T06:32:01;22.40;99.90
12053;DHT22;6087;48.982;12.064;2022-07-21T06:34:28;22.30;99.90
12053;DHT22;6087;48.982;12.064;2022-07-21T06:36:55;22.30;99.90
12053;DHT22;6087;48.982;12.064;2022-07-21T06:39:21;22.20;99.90
12053;DHT22;6087;48.982;12.064;2022-07-21T06:41:48;22.00;99.90
12053;DHT22;6087;48.982;12.064;2022-07-21T06:44:16;21.90;99.90
12053;DHT22;6087;48.982;12.064;2022-07-21T06:46:43;21.80;99.90
12053;DHT22;6087;48.982;12.064;2022-07-21T06:49:10;21.80;99.90
12053;DHT22;6087;48.982;12.064;2022-07-21T06:51:37;21.90;99.90
12053;DHT22;6087;48.982;12.064;2022-07-21T06:54:04;22.00;99.90
12053;DHT22;6087;48.982;12.064;2022-07-21T06:56:31;22.10;99.90
12053;DHT22;6087;48.982;12.064;2022-07-21T06:58:58;22.20;99.90
12053;DHT22;6087;48.982;12.064;2022-07-21T07:01:26;22.20;99.90
12053;DHT22;6087;48.982;12.064;2022-07-21T07:03:53;22.20;99.90
12053;DHT22;6087;48.982;12.064;2022-07-21T07:06:20;22.30;99.90
12053;DHT22;6087;48.982;12.064;2022-07-21T07:08:48;22.40;99.90
12053;DHT22;6087;48.982;12.064;2022-07-21T07:11:16;22.40;99.90
12053;DHT22;6087;48.982;12.064;2022-07-21T07:13:43;22.40;99.90
12053;DHT22;6087;48.982;12.064;2022-07-21T07:16:11;22.40;99.90
12053;DHT22;6087;48.982;12.064;2022-07-21T07:18:39;22.50;99.90
12053;DHT22;6087;48.982;12.064;2022-07-21T07:21:06;22.60;99.90
12053;DHT22;6087;48.982;12.064;2022-07-21T07:23:33;22.60;99.90
12053;DHT22;6087;48.982;12.064;2022-07-21T07:26:00;22.70;99.90
12053;DHT22;6087;48.982;12.064;2022-07-21T07:28:27;22.80;99.90
12053;DHT22;6087;48.982;12.064;2022-07-21T07:30:54;22.80;99.90
12053;DHT22;6087;48.982;12.064;2022-07-21T07:33:21;22.80;99.90
12053;DHT22;6087;48.982;12.064;2022-07-21T07:35:51;22.80;99.90
12053;DHT22;6087;48.982;12.064;2022-07-21T07:38:18;22.80;99.90
12053;DHT22;6087;48.982;12.064;2022-07-21T07:40:45;22.80;99.90
12053;DHT22;6087;48.982;12.064;2022-07-21T07:43:12;22.80;99.90
12053;DHT22;6087;48.982;12.064;2022-07-21T07:45:39;22.70;99.90
12053;DHT22;6087;48.982;12.064;2022-07-21T07:48:06;22.70;99.90
12053;DHT22;6087;48.982;12.064;2022-07-21T07:50:33;22.60;99.90
12053;DHT22;6087;48.982;12.064;2022-07-21T07:53:02;22.70;99.90
12053;DHT22;6087;48.982;12.064;2022-07-21T07:55:29;22.60;99.90
12053;DHT22;6087;48.982;12.064;2022-07-21T07:57:55;22.70;99.90
12053;DHT22;6087;48.982;12.064;2022-07-21T08:00:22;22.70;99.90
12053;DHT22;6087;48.982;12.064;2022-07-21T08:02:49;22.80;99.90
12053;DHT22;6087;48.982;12.064;2022-07-21T08:05:16;22.70;99.90
12053;DHT22;6087;48.982;12.064;2022-07-21T08:07:43;22.80;99.90
12053;DHT22;6087;48.982;12.064;2022-07-21T08:10:12;22.70;99.90
12053;DHT22;6087;48.982;12.064;2022-07-21T08:12:40;22.80;99.90
12053;DHT22;6087;48.982;12.064;2022-07-21T08:15:08;22.80;99.90
12053;DHT22;6087;48.982;12.064;2022-07-21T08:17:36;22.90;99.90
12053;DHT22;6087;48.982;12.064;2022-07-21T08:20:04;22.80;99.90
12053;DHT22;6087;48.982;12.064;2022-07-21T08:22:31;22.50;99.90
12053;DHT22;6087;48.982;12.064;2022-07-21T08:24:58;22.60;99.90
12053;DHT22;6087;48.982;12.064;2022-07-21T08:27:27;22.50;99.90
12053;DHT22;6087;48.982;12.064;2022-07-21T08:29:54;22.50;99.90
12053;DHT22;6087;48.982;12.064;2022-07-21T08:32:21;22.50;99.90
12053;DHT22;6087;48.982;12.064;2022-07-21T08:34:48;22.70;99.90
12053;DHT22;6087;48.982;12.064;2022-07-21T08:37:15;22.70;99.90
12053;DHT22;6087;48.982;12.064;2022-07-21T08:39:42;22.60;99.90
12053;DHT22;6087;48.982;12.064;2022-07-21T08:42:11;22.40;99.90
12053;DHT22;6087;48.982;12.064;2022-07-21T08:44:40;22.40;99.90
12053;DHT22;6087;48.982;12.064;2022-07-21T08:47:07;22.40;99.90
12053;DHT22;6087;48.982;12.064;2022-07-21T08:49:34;22.30;99.90
12053;DHT22;6087;48.982;12.064;2022-07-21T08:52:02;22.30;99.90
12053;DHT22;6087;48.982;12.064;2022-07-21T08:54:29;22.30;99.90
12053;DHT22;6087;48.982;12.064;2022-07-21T08:56:58;22.30;99.90
12053;DHT22;6087;48.982;12.064;2022-07-21T08:59:25;22.30;99.90
12053;DHT22;6087;48.982;12.064;2022-07-21T09:01:54;22.40;99.90
12053;DHT22;6087;48.982;12.064;2022-07-21T09:04:23;22.50;99.90
12053;DHT22;6087;48.982;12.064;2022-07-21T09:06:53;22.60;99.90
12053;DHT22;6087;48.982;12.064;2022-07-21T09:09:22;22.60;99.90
12053;DHT22;6087;48.982;12.064;2022-07-21T09:11:50;22.60;99.90
12053;DHT22;6087;48.982;12.064;2022-07-21T09:14:19;22.60;99.90
12053;DHT22;6087;48.982;12.064;2022-07-21T09:16:50;22.60;99.90
12053;DHT22;6087;48.982;12.064;2022-07-21T09:19:21;22.50;99.90
12053;DHT22;6087;48.982;12.064;2022-07-21T09:21:49;22.50;99.90
12053;DHT22;6087;48.982;12.064;2022-07-21T09:24:20;22.30;99.90
12053;DHT22;6087;48.982;12.064;2022-07-21T09:27:04;22.30;99.90
12053;DHT22;6087;48.982;12.064;2022-07-21T09:29:40;22.30;99.90
12053;DHT22;6087;48.982;12.064;2022-07-21T09:32:28;22.30;99.90
12053;DHT22;6087;48.982;12.064;2022-07-21T09:35:00;22.30;99.90
12053;DHT22;6087;48.982;12.064;2022-07-21T09:37:27;22.30;99.90
12053;DHT22;6087;48.982;12.064;2022-07-21T09:39:55;22.30;99.90
12053;DHT22;6087;48.982;12.064;2022-07-21T09:42:24;22.20;99.90
12053;DHT22;6087;48.982;12.064;2022-07-21T09:44:54;22.20;99.90
12053;DHT22;6087;48.982;12.064;2022-07-21T09:47:23;22.20;99.90
12053;DHT22;6087;48.982;12.064;2022-07-21T09:49:50;22.20;99.90
12053;DHT22;6087;48.982;12.064;2022-07-21T09:52:20;22.20;99.90
12053;DHT22;6087;48.982;12.064;2022-07-21T09:54:47;22.30;99.90
12053;DHT22;6087;48.982;12.064;2022-07-21T09:57:15;22.40;99.90
12053;DHT22;6087;48.982;12.064;2022-07-21T09:59:43;22.40;99.90
12053;DHT22;6087;48.982;12.064;2022-07-21T10:02:15;22.50;99.90
12053;DHT22;6087;48.982;12.064;2022-07-21T10:04:43;22.50;99.90
12053;DHT22;6087;48.982;12.064;2022-07-21T10:07:11;22.40;99.90
12053;DHT22;6087;48.982;12.064;2022-07-21T10:09:40;22.40;99.90
12053;DHT22;6087;48.982;12.064;2022-07-21T10:12:07;22.40;99.90
12053;DHT22;6087;48.982;12.064;2022-07-21T10:14:35;22.40;99.90
12053;DHT22;6087;48.982;12.064;2022-07-21T10:17:04;22.30;99.90
12053;DHT22;6087;48.982;12.064;2022-07-21T10:19:37;22.20;99.90
12053;DHT22;6087;48.982;12.064;2022-07-21T10:22:12;22.20;99.90
12053;DHT22;6087;48.982;12.064;2022-07-21T10:24:43;22.10;99.90
12053;DHT22;6087;48.982;12.064;2022-07-21T10:27:13;22.00;99.90
12053;DHT22;6087;48.982;12.064;2022-07-21T10:29:57;21.90;99.90
12053;DHT22;6087;48.982;12.064;2022-07-21T10:32:28;21.80;99.90
12053;DHT22;6087;48.982;12.064;2022-07-21T10:34:57;21.70;99.90
12053;DHT22;6087;48.982;12.064;2022-07-21T10:37:46;21.90;99.90
12053;DHT22;6087;48.982;12.064;2022-07-21T10:40:39;21.90;99.90
12053;DHT22;6087;48.982;12.064;2022-07-21T10:43:37;22.00;99.90
12053;DHT22;6087;48.982;12.064;2022-07-21T10:46:36;22.10;99.90
12053;DHT22;6087;48.982;12.064;2022-07-21T10:49:08;22.20;99.90
12053;DHT22;6087;48.982;12.064;2022-07-21T10:51:36;22.30;99.90
12053;DHT22;6087;48.982;12.064;2022-07-21T10:54:23;22.40;99.90
12053;DHT22;6087;48.982;12.064;2022-07-21T10:57:26;22.40;99.90
12053;DHT22;6087;48.982;12.064;2022-07-21T11:00:19;22.40;99.90
12053;DHT22;6087;48.982;12.064;2022-07-21T11:02:47;22.50;99.90
12053;DHT22;6087;48.982;12.064;2022-07-21T11:05:15;22.40;99.90
12053;DHT22;6087;48.982;12.064;2022-07-21T11:08:14;22.40;99.90
12053;DHT22;6087;48.982;12.064;2022-07-21T11:10:43;22.40;99.90
12053;DHT22;6087;48.982;12.064;2022-07-21T11:13:12;22.40;99.90
12053;DHT22;6087;48.982;12.064;2022-07-21T11:15:44;22.50;99.90
12053;DHT22;6087;48.982;12.064;2022-07-21T11:18:11;22.40;99.90
12053;DHT22;6087;48.982;12.064;2022-07-21T11:20:42;22.50;99.90
12053;DHT22;6087;48.982;12.064;2022-07-21T11:23:09;22.50;99.90
12053;DHT22;6087;48.982;12.064;2022-07-21T11:25:36;22.30;99.90
12053;DHT22;6087;48.982;12.064;2022-07-21T11:28:05;22.10;99.90
12053;DHT22;6087;48.982;12.064;2022-07-21T11:30:43;21.90;99.90
12053;DHT22;6087;48.982;12.064;2022-07-21T11:33:20;21.80;99.90
12053;DHT22;6087;48.982;12.064;2022-07-21T11:35:48;21.90;99.90
12053;DHT22;6087;48.982;12.064;2022-07-21T11:38:15;22.10;99.90
12053;DHT22;6087;48.982;12.064;2022-07-21T11:40:42;22.20;99.90
12053;DHT22;6087;48.982;12.064;2022-07-21T11:43:09;22.10;99.90
12053;DHT22;6087;48.982;12.064;2022-07-21T11:45:36;22.00;99.90
12053;DHT22;6087;48.982;12.064;2022-07-21T11:48:04;22.10;99.90
12053;DHT22;6087;48.982;12.064;2022-07-21T11:50:31;22.10;99.90
12053;DHT22;6087;48.982;12.064;2022-07-21T11:53:00;22.10;99.90
12053;DHT22;6087;48.982;12.064;2022-07-21T11:55:28;22.10;99.90
12053;DHT22;6087;48.982;12.064;2022-07-21T11:57:55;22.20;99.90
12053;DHT22;6087;48.982;12.064;2022-07-21T12:00:24;22.20;99.90
12053;DHT22;6087;48.982;12.064;2022-07-21T12:02:51;22.30;99.90
12053;DHT22;6087;48.982;12.064;2022-07-21T12:05:20;22.40;99.90
12053;DHT22;6087;48.982;12.064;2022-07-21T12:07:50;22.50;99.90
12053;DHT22;6087;48.982;12.064;2022-07-21T12:10:23;22.60;99.90
12053;DHT22;6087;48.982;12.064;2022-07-21T12:12:50;22.80;99.90
12053;DHT22;6087;48.982;12.064;2022-07-21T12:15:18;22.90;99.90
12053;DHT22;6087;48.982;12.064;2022-07-21T12:17:47;22.90;99.90
12053;DHT22;6087;48.982;12.064;2022-07-21T12:20:23;22.90;99.90
12053;DHT22;6087;48.982;12.064;2022-07-21T12:22:50;22.90;99.90
12053;DHT22;6087;48.982;12.064;2022-07-21T12:25:18;23.00;99.90
12053;DHT22;6087;48.982;12.064;2022-07-21T12:27:55;23.10;99.90
12053;DHT22;6087;48.982;12.064;2022-07-21T12:30:34;23.30;99.90
12053;DHT22;6087;48.982;12.064;2022-07-21T12:33:03;23.30;99.90
12053;DHT22;6087;48.982;12.064;2022-07-21T12:35:32;23.40;99.90
12053;DHT22;6087;48.982;12.064;2022-07-21T12:38:02;23.40;99.90
12053;DHT22;6087;48.982;12.064;2022-07-21T12:40:31;23.50;99.90
12053;DHT22;6087;48.982;12.064;2022-07-21T12:43:07;23.40;99.90
12053;DHT22;6087;48.982;12.064;2022-07-21T12:45:46;23.50;99.90
12053;DHT22;6087;48.982;12.064;2022-07-21T12:48:14;23.40;99.90
12053;DHT22;6087;48.982;12.064;2022-07-21T12:51:01;23.50;99.90
12053;DHT22;6087;48.982;12.064;2022-07-21T12:53:29;23.30;99.90
12053;DHT22;6087;48.982;12.064;2022-07-21T12:55:56;23.30;99.90
12053;DHT22;6087;48.982;12.064;2022-07-21T12:58:24;23.30;99.90
12053;DHT22;6087;48.982;12.064;2022-07-21T13:00:51;23.40;99.90
12053;DHT22;6087;48.982;12.064;2022-07-21T13:03:18;23.50;99.90
12053;DHT22;6087;48.982;12.064;2022-07-21T13:05:46;23.50;99.90
12053;DHT22;6087;48.982;12.064;2022-07-21T13:08:13;23.50;99.90
12053;DHT22;6087;48.982;12.064;2022-07-21T13:10:40;23.50;99.90
12053;DHT22;6087;48.982;12.064;2022-07-21T13:13:07;23.50;99.90
12053;DHT22;6087;48.982;12.064;2022-07-21T13:15:34;23.60;99.90
12053;DHT22;6087;48.982;12.064;2022-07-21T13:18:01;23.60;99.90
12053;DHT22;6087;48.982;12.064;2022-07-21T13:20:28;23.60;99.90
12053;DHT22;6087;48.982;12.064;2022-07-21T13:22:56;23.60;99.90
12053;DHT22;6087;48.982;12.064;2022-07-21T13:25:23;23.80;99.90
12053;DHT22;6087;48.982;12.064;2022-07-21T13:27:50;23.90;99.90
12053;DHT22;6087;48.982;12.064;2022-07-21T13:30:18;24.10;99.90
12053;DHT22;6087;48.982;12.064;2022-07-21T13:32:45;24.00;99.90
12053;DHT22;6087;48.982;12.064;2022-07-21T13:35:12;24.20;99.90
12053;DHT22;6087;48.982;12.064;2022-07-21T13:37:39;24.40;99.90
12053;DHT22;6087;48.982;12.064;2022-07-21T13:40:08;24.40;99.90
12053;DHT22;6087;48.982;12.064;2022-07-21T13:42:36;24.40;99.90
12053;DHT22;6087;48.982;12.064;2022-07-21T13:45:04;24.60;99.90
12053;DHT22;6087;48.982;12.064;2022-07-21T13:47:33;24.80;99.90
12053;DHT22;6087;48.982;12.064;2022-07-21T13:49:59;24.90;99.90
12053;DHT22;6087;48.982;12.064;2022-07-21T13:52:27;24.80;99.90
12053;DHT22;6087;48.982;12.064;2022-07-21T13:54:53;24.80;99.90
12053;DHT22;6087;48.982;12.064;2022-07-21T13:57:22;24.80;99.90
12053;DHT22;6087;48.982;12.064;2022-07-21T13:59:49;25.00;99.90
12053;DHT22;6087;48.982;12.064;2022-07-21T14:02:15;24.90;99.90
12053;DHT22;6087;48.982;12.064;2022-07-21T14:04:43;24.90;99.90
12053;DHT22;6087;48.982;12.064;2022-07-21T14:07:10;24.80;99.90
12053;DHT22;6087;48.982;12.064;2022-07-21T14:09:39;24.60;99.90
12053;DHT22;6087;48.982;12.064;2022-07-21T14:12:06;24.70;99.90
12053;DHT22;6087;48.982;12.064;2022-07-21T14:14:34;24.60;99.90
12053;DHT22;6087;48.982;12.064;2022-07-21T14:17:01;24.60;99.90
12053;DHT22;6087;48.982;12.064;2022-07-21T14:19:28;24.60;99.90
12053;DHT22;6087;48.982;12.064;2022-07-21T14:21:55;24.60;99.90
12053;DHT22;6087;48.982;12.064;2022-07-21T14:24:22;24.70;99.90
12053;DHT22;6087;48.982;12.064;2022-07-21T14:27:06;24.70;99.90
12053;DHT22;6087;48.982;12.064;2022-07-21T14:29:34;24.90;99.90
12053;DHT22;6087;48.982;12.064;2022-07-21T14:32:01;25.10;99.90
12053;DHT22;6087;48.982;12.064;2022-07-21T14:34:28;25.20;99.90
12053;DHT22;6087;48.982;12.064;2022-07-21T14:36:55;25.30;99.90
12053;DHT22;6087;48.982;12.064;2022-07-21T14:39:22;25.30;99.90
12053;DHT22;6087;48.982;12.064;2022-07-21T14:41:49;25.40;99.90
12053;DHT22;6087;48.982;12.064;2022-07-21T14:44:16;25.40;99.90
12053;DHT22;6087;48.982;12.064;2022-07-21T14:46:45;25.40;99.90
12053;DHT22;6087;48.982;12.064;2022-07-21T14:49:11;25.50;99.90
12053;DHT22;6087;48.982;12.064;2022-07-21T14:51:38;25.40;99.90
12053;DHT22;6087;48.982;12.064;2022-07-21T14:54:05;25.50;99.90
12053;DHT22;6087;48.982;12.064;2022-07-21T14:56:32;25.40;99.90
12053;DHT22;6087;48.982;12.064;2022-07-21T14:58:59;25.40;99.90
12053;DHT22;6087;48.982;12.064;2022-07-21T15:01:26;25.30;99.90
12053;DHT22;6087;48.982;12.064;2022-07-21T15:03:54;25.30;99.90
12053;DHT22;6087;48.982;12.064;2022-07-21T15:06:21;25.30;99.90
12053;DHT22;6087;48.982;12.064;2022-07-21T15:08:48;25.20;99.90
12053;DHT22;6087;48.982;12.064;2022-07-21T15:11:15;25.10;99.90
12053;DHT22;6087;48.982;12.064;2022-07-21T15:13:43;25.20;99.90
12053;DHT22;6087;48.982;12.064;2022-07-21T15:16:10;25.30;99.90
12053;DHT22;6087;48.982;12.064;2022-07-21T15:18:37;25.30;99.90
12053;DHT22;6087;48.982;12.064;2022-07-21T15:21:05;25.20;99.90
12053;DHT22;6087;48.982;12.064;2022-07-21T15:23:32;25.20;99.90
12053;DHT22;6087;48.982;12.064;2022-07-21T15:25:59;25.30;99.90
12053;DHT22;6087;48.982;12.064;2022-07-21T15:28:26;25.40;99.90
12053;DHT22;6087;48.982;12.064;2022-07-21T15:30:53;25.40;99.90
12053;DHT22;6087;48.982;12.064;2022-07-21T15:33:20;25.40;99.90
12053;DHT22;6087;48.982;12.064;2022-07-21T15:35:47;25.40;99.90
12053;DHT22;6087;48.982;12.064;2022-07-21T15:38:16;25.40;99.90
12053;DHT22;6087;48.982;12.064;2022-07-21T15:40:43;25.50;99.90
12053;DHT22;6087;48.982;12.064;2022-07-21T15:43:09;25.60;99.90